aviador You're here:

KMKO Decoded Metar

MUSKOGEE in OK, USA
Report Time2017-06-25 05:53:00
UTC Time2017-06-25 06:54:58
Flight Rules vfr VFR
WindCalm
Visibility9999 m
Phenomena:N/A
Clouds:Broken 110 Hf
Expected CloudBase > 1,200 ft AGL from Temp-Dew spread
Ceiling11,000 ft
Temp20°C (ISA +6)
Dew Point17°C (83% RH)
QNH1024 hPa
Density Alt1,224 ft
Elevation607 ft
Report Wrong Elevation
Raw Report
KMKO 250553Z AUTO 00000KT 10SM BKN110 20/17 A3024 RMK AO2 SLP233
T02000167 10272 20200 402830194 51014=

Extra information for KMKO:More info

Metar Taf Metar & Taf Last 4 Metars F.Rules Stats Wind Profile Meteogram Temp Stats Airport Information Weather charts Add Link Nearby VenuesMetar ALERT Operation Metar Decoded Social comments

AIRNAV info for KMKO